sensor_id;sensor_type;location;lat;lon;timestamp;temperature;humidity
8313;DHT22;4194;43.408;24.626;2023-05-14T00:00:50;13.90;84.20
8313;DHT22;4194;43.408;24.626;2023-05-14T00:03:16;14.80;85.40
8313;DHT22;4194;43.408;24.626;2023-05-14T00:05:41;15.00;85.50
8313;DHT22;4194;43.408;24.626;2023-05-14T00:08:07;13.70;84.80
8313;DHT22;4194;43.408;24.626;2023-05-14T00:10:33;13.00;84.10
8313;DHT22;4194;43.408;24.626;2023-05-14T00:12:59;14.60;85.60
8313;DHT22;4194;43.408;24.626;2023-05-14T00:15:25;14.60;85.90
8313;DHT22;4194;43.408;24.626;2023-05-14T00:17:51;14.50;85.90
8313;DHT22;4194;43.408;24.626;2023-05-14T00:20:16;13.00;84.50
8313;DHT22;4194;43.408;24.626;2023-05-14T00:22:42;13.30;84.80
8313;DHT22;4194;43.408;24.626;2023-05-14T00:25:08;13.10;85.40
8313;DHT22;4194;43.408;24.626;2023-05-14T00:27:34;14.50;86.90
8313;DHT22;4194;43.408;24.626;2023-05-14T00:30:03;14.30;86.40
8313;DHT22;4194;43.408;24.626;2023-05-14T00:32:30;13.70;87.40
8313;DHT22;4194;43.408;24.626;2023-05-14T00:34:56;12.40;83.80
8313;DHT22;4194;43.408;24.626;2023-05-14T00:37:22;13.70;86.20
8313;DHT22;4194;43.408;24.626;2023-05-14T00:39:48;13.30;85.20
8313;DHT22;4194;43.408;24.626;2023-05-14T00:42:13;13.40;84.80
8313;DHT22;4194;43.408;24.626;2023-05-14T00:44:39;13.80;86.00
8313;DHT22;4194;43.408;24.626;2023-05-14T00:47:05;12.80;84.10
8313;DHT22;4194;43.408;24.626;2023-05-14T00:51:57;13.50;84.50
8313;DHT22;4194;43.408;24.626;2023-05-14T00:54:25;13.50;84.30
8313;DHT22;4194;43.408;24.626;2023-05-14T00:56:52;14.70;85.70
8313;DHT22;4194;43.408;24.626;2023-05-14T00:59:18;14.80;85.30
8313;DHT22;4194;43.408;24.626;2023-05-14T01:01:44;13.30;84.20
8313;DHT22;4194;43.408;24.626;2023-05-14T01:04:10;14.70;85.50
8313;DHT22;4194;43.408;24.626;2023-05-14T01:07:05;14.20;84.40
8313;DHT22;4194;43.408;24.626;2023-05-14T01:10:00;13.40;83.90
8313;DHT22;4194;43.408;24.626;2023-05-14T01:15:10;13.60;84.40
8313;DHT22;4194;43.408;24.626;2023-05-14T01:17:53;14.00;84.00
8313;DHT22;4194;43.408;24.626;2023-05-14T01:20:21;15.00;85.70
8313;DHT22;4194;43.408;24.626;2023-05-14T01:22:47;13.10;83.80
8313;DHT22;4194;43.408;24.626;2023-05-14T01:25:13;13.70;85.10
8313;DHT22;4194;43.408;24.626;2023-05-14T01:27:44;13.70;85.00
8313;DHT22;4194;43.408;24.626;2023-05-14T01:30:34;13.90;85.50
8313;DHT22;4194;43.408;24.626;2023-05-14T01:33:05;13.20;85.20
8313;DHT22;4194;43.408;24.626;2023-05-14T01:35:32;14.00;86.30
8313;DHT22;4194;43.408;24.626;2023-05-14T01:38:03;13.40;85.90
8313;DHT22;4194;43.408;24.626;2023-05-14T01:40:31;13.10;84.70
8313;DHT22;4194;43.408;24.626;2023-05-14T01:42:57;14.80;86.50
8313;DHT22;4194;43.408;24.626;2023-05-14T01:45:23;13.10;86.00
8313;DHT22;4194;43.408;24.626;2023-05-14T01:47:50;13.60;85.90
8313;DHT22;4194;43.408;24.626;2023-05-14T01:50:16;14.20;86.00
8313;DHT22;4194;43.408;24.626;2023-05-14T01:52:42;14.00;85.90
8313;DHT22;4194;43.408;24.626;2023-05-14T01:55:08;13.40;85.70
8313;DHT22;4194;43.408;24.626;2023-05-14T01:57:34;12.70;84.60
8313;DHT22;4194;43.408;24.626;2023-05-14T01:59:59;14.20;86.80
8313;DHT22;4194;43.408;24.626;2023-05-14T02:04:51;13.80;86.50
8313;DHT22;4194;43.408;24.626;2023-05-14T02:07:17;13.80;87.20
8313;DHT22;4194;43.408;24.626;2023-05-14T02:09:42;13.00;87.20
8313;DHT22;4194;43.408;24.626;2023-05-14T02:12:09;13.00;86.50
8313;DHT22;4194;43.408;24.626;2023-05-14T02:14:35;13.50;86.00
8313;DHT22;4194;43.408;24.626;2023-05-14T02:17:01;12.60;85.70
8313;DHT22;4194;43.408;24.626;2023-05-14T02:19:28;14.90;88.90
8313;DHT22;4194;43.408;24.626;2023-05-14T02:21:54;13.80;87.70
8313;DHT22;4194;43.408;24.626;2023-05-14T02:24:19;13.60;88.30
8313;DHT22;4194;43.408;24.626;2023-05-14T02:26:45;14.60;87.60
8313;DHT22;4194;43.408;24.626;2023-05-14T02:29:11;13.90;86.50
8313;DHT22;4194;43.408;24.626;2023-05-14T02:31:37;14.40;87.20
8313;DHT22;4194;43.408;24.626;2023-05-14T02:34:03;14.90;88.40
8313;DHT22;4194;43.408;24.626;2023-05-14T02:36:31;13.70;87.90
8313;DHT22;4194;43.408;24.626;2023-05-14T02:38:58;13.70;87.40
8313;DHT22;4194;43.408;24.626;2023-05-14T02:41:24;14.80;88.00
8313;DHT22;4194;43.408;24.626;2023-05-14T02:43:50;13.70;87.10
8313;DHT22;4194;43.408;24.626;2023-05-14T02:46:16;13.50;86.20
8313;DHT22;4194;43.408;24.626;2023-05-14T02:48:42;13.40;86.70
8313;DHT22;4194;43.408;24.626;2023-05-14T02:51:07;13.90;87.50
8313;DHT22;4194;43.408;24.626;2023-05-14T02:55:59;15.10;88.20
8313;DHT22;4194;43.408;24.626;2023-05-14T03:00:51;13.40;86.10
8313;DHT22;4194;43.408;24.626;2023-05-14T03:03:18;13.80;87.30
8313;DHT22;4194;43.408;24.626;2023-05-14T03:05:44;13.60;87.70
8313;DHT22;4194;43.408;24.626;2023-05-14T03:08:10;12.80;86.10
8313;DHT22;4194;43.408;24.626;2023-05-14T03:13:02;14.40;88.00
8313;DHT22;4194;43.408;24.626;2023-05-14T03:15:28;14.20;88.10
8313;DHT22;4194;43.408;24.626;2023-05-14T03:17:53;12.80;87.20
8313;DHT22;4194;43.408;24.626;2023-05-14T03:20:19;13.00;86.60
8313;DHT22;4194;43.408;24.626;2023-05-14T03:22:45;14.00;87.70
8313;DHT22;4194;43.408;24.626;2023-05-14T03:25:11;13.40;87.10
8313;DHT22;4194;43.408;24.626;2023-05-14T03:27:36;14.00;88.10
8313;DHT22;4194;43.408;24.626;2023-05-14T03:30:03;14.00;87.90
8313;DHT22;4194;43.408;24.626;2023-05-14T03:32:29;14.10;87.80
8313;DHT22;4194;43.408;24.626;2023-05-14T03:34:54;14.20;88.80
8313;DHT22;4194;43.408;24.626;2023-05-14T03:37:20;14.80;89.50
8313;DHT22;4194;43.408;24.626;2023-05-14T03:39:46;13.50;88.20
8313;DHT22;4194;43.408;24.626;2023-05-14T03:42:12;14.90;89.60
8313;DHT22;4194;43.408;24.626;2023-05-14T03:44:37;14.90;89.00
8313;DHT22;4194;43.408;24.626;2023-05-14T03:47:03;14.50;88.80
8313;DHT22;4194;43.408;24.626;2023-05-14T03:49:29;13.90;88.30
8313;DHT22;4194;43.408;24.626;2023-05-14T03:51:55;13.60;87.30
8313;DHT22;4194;43.408;24.626;2023-05-14T03:54:22;13.70;88.00
8313;DHT22;4194;43.408;24.626;2023-05-14T03:56:48;13.50;85.30
8313;DHT22;4194;43.408;24.626;2023-05-14T03:59:13;14.20;85.90
8313;DHT22;4194;43.408;24.626;2023-05-14T04:01:39;13.70;86.40
8313;DHT22;4194;43.408;24.626;2023-05-14T04:04:05;13.10;85.40
8313;DHT22;4194;43.408;24.626;2023-05-14T04:06:31;14.80;87.90
8313;DHT22;4194;43.408;24.626;2023-05-14T04:08:57;14.90;87.40
8313;DHT22;4194;43.408;24.626;2023-05-14T04:11:22;13.40;85.40
8313;DHT22;4194;43.408;24.626;2023-05-14T04:13:48;14.20;85.80
8313;DHT22;4194;43.408;24.626;2023-05-14T04:16:14;14.80;85.60
8313;DHT22;4194;43.408;24.626;2023-05-14T04:18:39;15.00;85.40
8313;DHT22;4194;43.408;24.626;2023-05-14T04:21:05;14.30;84.40
8313;DHT22;4194;43.408;24.626;2023-05-14T04:23:31;14.90;85.10
8313;DHT22;4194;43.408;24.626;2023-05-14T04:28:23;14.50;85.90
8313;DHT22;4194;43.408;24.626;2023-05-14T04:30:49;14.70;87.70
8313;DHT22;4194;43.408;24.626;2023-05-14T04:33:15;15.30;89.00
8313;DHT22;4194;43.408;24.626;2023-05-14T04:35:42;15.10;89.80
8313;DHT22;4194;43.408;24.626;2023-05-14T04:38:08;14.60;86.80
8313;DHT22;4194;43.408;24.626;2023-05-14T04:40:35;14.80;87.60
8313;DHT22;4194;43.408;24.626;2023-05-14T04:43:01;14.80;87.20
8313;DHT22;4194;43.408;24.626;2023-05-14T04:45:27;15.00;86.90
8313;DHT22;4194;43.408;24.626;2023-05-14T04:47:53;15.00;84.30
8313;DHT22;4194;43.408;24.626;2023-05-14T04:52:45;15.10;83.90
8313;DHT22;4194;43.408;24.626;2023-05-14T04:55:10;15.10;82.90
8313;DHT22;4194;43.408;24.626;2023-05-14T04:57:36;15.30;83.90
8313;DHT22;4194;43.408;24.626;2023-05-14T05:00:02;15.40;80.50
8313;DHT22;4194;43.408;24.626;2023-05-14T05:02:30;15.60;80.80
8313;DHT22;4194;43.408;24.626;2023-05-14T05:04:56;16.10;80.00
8313;DHT22;4194;43.408;24.626;2023-05-14T05:09:47;16.10;77.60
8313;DHT22;4194;43.408;24.626;2023-05-14T05:14:39;16.70;76.80
8313;DHT22;4194;43.408;24.626;2023-05-14T05:17:05;16.30;76.20
8313;DHT22;4194;43.408;24.626;2023-05-14T05:19:31;14.70;74.60
8313;DHT22;4194;43.408;24.626;2023-05-14T05:21:56;16.20;76.00
8313;DHT22;4194;43.408;24.626;2023-05-14T05:24:22;17.50;77.30
8313;DHT22;4194;43.408;24.626;2023-05-14T05:26:48;17.90;77.60
8313;DHT22;4194;43.408;24.626;2023-05-14T05:29:14;16.70;75.00
8313;DHT22;4194;43.408;24.626;2023-05-14T05:31:40;15.50;74.10
8313;DHT22;4194;43.408;24.626;2023-05-14T05:34:06;17.70;76.30
8313;DHT22;4194;43.408;24.626;2023-05-14T05:36:32;16.20;75.10
8313;DHT22;4194;43.408;24.626;2023-05-14T05:38:57;17.60;76.70
8313;DHT22;4194;43.408;24.626;2023-05-14T05:41:23;17.20;74.50
8313;DHT22;4194;43.408;24.626;2023-05-14T05:46:15;16.60;73.60
8313;DHT22;4194;43.408;24.626;2023-05-14T05:48:40;16.50;71.20
8313;DHT22;4194;43.408;24.626;2023-05-14T05:51:06;16.60;72.00
8313;DHT22;4194;43.408;24.626;2023-05-14T05:55:58;16.60;72.00
8313;DHT22;4194;43.408;24.626;2023-05-14T06:00:50;16.10;70.80
8313;DHT22;4194;43.408;24.626;2023-05-14T06:03:16;15.80;72.00
8313;DHT22;4194;43.408;24.626;2023-05-14T06:05:41;16.50;72.40
8313;DHT22;4194;43.408;24.626;2023-05-14T06:08:07;16.70;72.30
8313;DHT22;4194;43.408;24.626;2023-05-14T06:10:34;17.40;73.50
8313;DHT22;4194;43.408;24.626;2023-05-14T06:13:00;16.00;71.60
8313;DHT22;4194;43.408;24.626;2023-05-14T06:15:26;15.70;71.60
8313;DHT22;4194;43.408;24.626;2023-05-14T06:17:52;17.70;71.50
8313;DHT22;4194;43.408;24.626;2023-05-14T06:20:18;17.10;71.40
8313;DHT22;4194;43.408;24.626;2023-05-14T06:22:43;17.90;71.80
8313;DHT22;4194;43.408;24.626;2023-05-14T06:25:09;17.30;70.90
8313;DHT22;4194;43.408;24.626;2023-05-14T06:27:35;16.50;69.20
8313;DHT22;4194;43.408;24.626;2023-05-14T06:30:01;17.60;69.50
8313;DHT22;4194;43.408;24.626;2023-05-14T06:32:26;18.40;70.50
8313;DHT22;4194;43.408;24.626;2023-05-14T06:34:52;17.00;68.70
8313;DHT22;4194;43.408;24.626;2023-05-14T06:37:18;18.80;69.50
8313;DHT22;4194;43.408;24.626;2023-05-14T06:39:43;17.40;67.60
8313;DHT22;4194;43.408;24.626;2023-05-14T06:42:14;19.00;69.80
8313;DHT22;4194;43.408;24.626;2023-05-14T06:44:40;17.00;67.70
8313;DHT22;4194;43.408;24.626;2023-05-14T06:47:06;18.30;69.30
8313;DHT22;4194;43.408;24.626;2023-05-14T06:49:35;18.80;70.50
8313;DHT22;4194;43.408;24.626;2023-05-14T06:52:01;17.80;69.60
8313;DHT22;4194;43.408;24.626;2023-05-14T06:54:28;17.90;70.40
8313;DHT22;4194;43.408;24.626;2023-05-14T06:56:54;17.30;70.50
8313;DHT22;4194;43.408;24.626;2023-05-14T06:59:20;18.40;71.00
8313;DHT22;4194;43.408;24.626;2023-05-14T07:01:45;18.40;70.40
8313;DHT22;4194;43.408;24.626;2023-05-14T07:04:11;17.90;71.30
8313;DHT22;4194;43.408;24.626;2023-05-14T07:06:37;17.80;72.00
8313;DHT22;4194;43.408;24.626;2023-05-14T07:09:03;18.00;69.70
8313;DHT22;4194;43.408;24.626;2023-05-14T07:13:54;19.10;70.20
8313;DHT22;4194;43.408;24.626;2023-05-14T07:16:20;18.30;69.40
8313;DHT22;4194;43.408;24.626;2023-05-14T07:18:46;18.50;69.10
8313;DHT22;4194;43.408;24.626;2023-05-14T07:21:11;19.20;70.20
8313;DHT22;4194;43.408;24.626;2023-05-14T07:23:37;18.50;70.20
8313;DHT22;4194;43.408;24.626;2023-05-14T07:26:04;18.90;69.60
8313;DHT22;4194;43.408;24.626;2023-05-14T07:28:31;19.30;69.40
8313;DHT22;4194;43.408;24.626;2023-05-14T07:30:57;18.90;69.00
8313;DHT22;4194;43.408;24.626;2023-05-14T07:33:27;18.80;67.60
8313;DHT22;4194;43.408;24.626;2023-05-14T07:35:53;19.00;69.00
8313;DHT22;4194;43.408;24.626;2023-05-14T07:38:19;18.70;69.50
8313;DHT22;4194;43.408;24.626;2023-05-14T07:40:44;17.90;68.50
8313;DHT22;4194;43.408;24.626;2023-05-14T07:43:10;19.60;71.00
8313;DHT22;4194;43.408;24.626;2023-05-14T07:45:36;18.70;69.50
8313;DHT22;4194;43.408;24.626;2023-05-14T07:48:03;19.30;70.10
8313;DHT22;4194;43.408;24.626;2023-05-14T07:50:29;19.00;69.20
8313;DHT22;4194;43.408;24.626;2023-05-14T07:52:56;19.10;67.10
8313;DHT22;4194;43.408;24.626;2023-05-14T07:57:48;18.70;65.70
8313;DHT22;4194;43.408;24.626;2023-05-14T08:00:14;19.00;67.10
8313;DHT22;4194;43.408;24.626;2023-05-14T08:02:41;18.70;67.50
8313;DHT22;4194;43.408;24.626;2023-05-14T08:05:08;19.10;68.20
8313;DHT22;4194;43.408;24.626;2023-05-14T08:07:34;19.10;68.00
8313;DHT22;4194;43.408;24.626;2023-05-14T08:10:00;19.30;69.60
8313;DHT22;4194;43.408;24.626;2023-05-14T08:12:25;17.40;67.80
8313;DHT22;4194;43.408;24.626;2023-05-14T08:14:51;18.80;69.80
8313;DHT22;4194;43.408;24.626;2023-05-14T08:17:17;18.40;70.80
8313;DHT22;4194;43.408;24.626;2023-05-14T08:19:43;18.30;71.50
8313;DHT22;4194;43.408;24.626;2023-05-14T08:22:09;18.10;71.80
8313;DHT22;4194;43.408;24.626;2023-05-14T08:24:34;18.30;73.30
8313;DHT22;4194;43.408;24.626;2023-05-14T08:29:27;18.90;76.00
8313;DHT22;4194;43.408;24.626;2023-05-14T08:31:53;18.50;79.80
8313;DHT22;4194;43.408;24.626;2023-05-14T08:34:18;17.50;80.90
8313;DHT22;4194;43.408;24.626;2023-05-14T08:39:10;18.70;83.90
8313;DHT22;4194;43.408;24.626;2023-05-14T08:41:36;18.10;84.10
8313;DHT22;4194;43.408;24.626;2023-05-14T08:46:36;18.70;85.10
8313;DHT22;4194;43.408;24.626;2023-05-14T08:49:30;19.10;86.40
8313;DHT22;4194;43.408;24.626;2023-05-14T08:51:58;17.40;84.50
8313;DHT22;4194;43.408;24.626;2023-05-14T08:54:25;17.00;84.20
8313;DHT22;4194;43.408;24.626;2023-05-14T08:56:51;19.10;85.80
8313;DHT22;4194;43.408;24.626;2023-05-14T08:59:18;17.70;84.00
8313;DHT22;4194;43.408;24.626;2023-05-14T09:01:47;18.50;84.90
8313;DHT22;4194;43.408;24.626;2023-05-14T09:04:20;17.30;83.30
8313;DHT22;4194;43.408;24.626;2023-05-14T09:06:49;18.60;82.90
8313;DHT22;4194;43.408;24.626;2023-05-14T09:09:15;18.40;83.20
8313;DHT22;4194;43.408;24.626;2023-05-14T09:11:41;18.20;84.50
8313;DHT22;4194;43.408;24.626;2023-05-14T09:14:08;18.80;86.60
8313;DHT22;4194;43.408;24.626;2023-05-14T09:16:35;19.10;86.40
8313;DHT22;4194;43.408;24.626;2023-05-14T09:19:02;18.30;86.20
8313;DHT22;4194;43.408;24.626;2023-05-14T09:21:28;19.10;86.40
8313;DHT22;4194;43.408;24.626;2023-05-14T09:23:56;18.30;82.10
8313;DHT22;4194;43.408;24.626;2023-05-14T09:26:26;18.80;83.30
8313;DHT22;4194;43.408;24.626;2023-05-14T09:28:56;19.10;85.60
8313;DHT22;4194;43.408;24.626;2023-05-14T09:31:22;18.90;86.70
8313;DHT22;4194;43.408;24.626;2023-05-14T09:33:51;19.30;85.60
8313;DHT22;4194;43.408;24.626;2023-05-14T09:36:17;18.60;84.70
8313;DHT22;4194;43.408;24.626;2023-05-14T09:38:43;18.80;86.50
8313;DHT22;4194;43.408;24.626;2023-05-14T09:41:09;19.20;84.50
8313;DHT22;4194;43.408;24.626;2023-05-14T09:43:35;18.60;82.00
8313;DHT22;4194;43.408;24.626;2023-05-14T09:48:27;18.90;85.10
8313;DHT22;4194;43.408;24.626;2023-05-14T09:50:53;19.10;84.30
8313;DHT22;4194;43.408;24.626;2023-05-14T09:53:19;19.30;84.00
8313;DHT22;4194;43.408;24.626;2023-05-14T09:58:11;19.00;80.20
8313;DHT22;4194;43.408;24.626;2023-05-14T10:00:44;20.20;76.40
8313;DHT22;4194;43.408;24.626;2023-05-14T10:03:13;19.90;73.20
8313;DHT22;4194;43.408;24.626;2023-05-14T10:05:40;20.40;74.90
8313;DHT22;4194;43.408;24.626;2023-05-14T10:08:29;20.90;70.30
8313;DHT22;4194;43.408;24.626;2023-05-14T10:10:58;20.50;71.10
8313;DHT22;4194;43.408;24.626;2023-05-14T10:13:29;21.70;73.80
8313;DHT22;4194;43.408;24.626;2023-05-14T10:18:45;22.60;72.20
8313;DHT22;4194;43.408;24.626;2023-05-14T10:21:14;21.30;69.20
8313;DHT22;4194;43.408;24.626;2023-05-14T10:23:42;22.60;72.20
8313;DHT22;4194;43.408;24.626;2023-05-14T10:28:34;21.40;71.40
8313;DHT22;4194;43.408;24.626;2023-05-14T10:31:00;21.40;69.60
8313;DHT22;4194;43.408;24.626;2023-05-14T10:33:26;20.70;69.80
8313;DHT22;4194;43.408;24.626;2023-05-14T10:36:06;22.50;70.00
8313;DHT22;4194;43.408;24.626;2023-05-14T10:38:36;23.00;67.80
8313;DHT22;4194;43.408;24.626;2023-05-14T10:41:10;23.10;65.80
8313;DHT22;4194;43.408;24.626;2023-05-14T10:43:38;23.90;63.10
8313;DHT22;4194;43.408;24.626;2023-05-14T10:46:04;24.80;60.90
8313;DHT22;4194;43.408;24.626;2023-05-14T10:48:31;24.50;59.80
8313;DHT22;4194;43.408;24.626;2023-05-14T10:50:58;25.00;59.10
8313;DHT22;4194;43.408;24.626;2023-05-14T10:53:35;25.60;58.90
8313;DHT22;4194;43.408;24.626;2023-05-14T10:56:12;25.00;58.50
8313;DHT22;4194;43.408;24.626;2023-05-14T10:58:42;24.70;58.90
8313;DHT22;4194;43.408;24.626;2023-05-14T11:01:10;24.80;58.50
8313;DHT22;4194;43.408;24.626;2023-05-14T11:03:44;25.00;58.70
8313;DHT22;4194;43.408;24.626;2023-05-14T11:06:11;25.90;59.40
8313;DHT22;4194;43.408;24.626;2023-05-14T11:08:38;25.70;59.70
8313;DHT22;4194;43.408;24.626;2023-05-14T11:11:05;26.30;58.40
8313;DHT22;4194;43.408;24.626;2023-05-14T11:16:00;25.80;56.80
8313;DHT22;4194;43.408;24.626;2023-05-14T11:18:30;26.40;58.10
8313;DHT22;4194;43.408;24.626;2023-05-14T11:20:59;26.10;57.60
8313;DHT22;4194;43.408;24.626;2023-05-14T11:23:25;25.70;58.50
8313;DHT22;4194;43.408;24.626;2023-05-14T11:25:52;25.30;60.30
8313;DHT22;4194;43.408;24.626;2023-05-14T11:28:22;25.40;61.10
8313;DHT22;4194;43.408;24.626;2023-05-14T11:30:49;25.50;62.20
8313;DHT22;4194;43.408;24.626;2023-05-14T11:33:15;25.60;61.50
8313;DHT22;4194;43.408;24.626;2023-05-14T11:35:41;26.00;61.30
8313;DHT22;4194;43.408;24.626;2023-05-14T11:38:19;25.80;61.20
8313;DHT22;4194;43.408;24.626;2023-05-14T11:40:54;26.20;61.00
8313;DHT22;4194;43.408;24.626;2023-05-14T11:43:21;26.50;61.20
8313;DHT22;4194;43.408;24.626;2023-05-14T11:45:51;27.20;58.50
8313;DHT22;4194;43.408;24.626;2023-05-14T11:48:18;28.00;58.30
8313;DHT22;4194;43.408;24.626;2023-05-14T11:50:46;28.20;57.30
8313;DHT22;4194;43.408;24.626;2023-05-14T11:53:17;28.10;56.30
8313;DHT22;4194;43.408;24.626;2023-05-14T11:55:44;29.70;56.20
8313;DHT22;4194;43.408;24.626;2023-05-14T12:00:37;29.10;53.20
8313;DHT22;4194;43.408;24.626;2023-05-14T12:03:04;28.90;55.10
8313;DHT22;4194;43.408;24.626;2023-05-14T12:05:30;27.70;56.10
8313;DHT22;4194;43.408;24.626;2023-05-14T12:07:55;27.40;57.00
8313;DHT22;4194;43.408;24.626;2023-05-14T12:10:21;26.70;58.10
8313;DHT22;4194;43.408;24.626;2023-05-14T12:12:47;26.80;58.40
8313;DHT22;4194;43.408;24.626;2023-05-14T12:15:14;27.70;58.30
8313;DHT22;4194;43.408;24.626;2023-05-14T12:17:41;26.80;56.60
8313;DHT22;4194;43.408;24.626;2023-05-14T12:20:08;27.60;56.70
8313;DHT22;4194;43.408;24.626;2023-05-14T12:25:01;26.50;57.50
8313;DHT22;4194;43.408;24.626;2023-05-14T12:27:28;26.60;57.50
8313;DHT22;4194;43.408;24.626;2023-05-14T12:30:02;25.50;58.40
8313;DHT22;4194;43.408;24.626;2023-05-14T12:32:30;25.10;62.00
8313;DHT22;4194;43.408;24.626;2023-05-14T12:34:56;25.00;62.50
8313;DHT22;4194;43.408;24.626;2023-05-14T12:37:22;24.90;63.20
8313;DHT22;4194;43.408;24.626;2023-05-14T12:39:48;24.60;62.80
8313;DHT22;4194;43.408;24.626;2023-05-14T12:42:14;24.30;63.30
8313;DHT22;4194;43.408;24.626;2023-05-14T12:44:40;24.00;64.30
8313;DHT22;4194;43.408;24.626;2023-05-14T12:49:32;24.30;67.10
8313;DHT22;4194;43.408;24.626;2023-05-14T12:51:58;24.50;66.50
8313;DHT22;4194;43.408;24.626;2023-05-14T12:54:24;24.00;65.20
8313;DHT22;4194;43.408;24.626;2023-05-14T12:56:50;23.90;65.30
8313;DHT22;4194;43.408;24.626;2023-05-14T12:59:15;23.70;65.90
8313;DHT22;4194;43.408;24.626;2023-05-14T13:01:41;24.20;65.90
8313;DHT22;4194;43.408;24.626;2023-05-14T13:04:09;23.70;66.20
8313;DHT22;4194;43.408;24.626;2023-05-14T13:06:37;23.70;66.10
8313;DHT22;4194;43.408;24.626;2023-05-14T13:09:04;23.70;66.60
8313;DHT22;4194;43.408;24.626;2023-05-14T13:11:29;23.50;66.20
8313;DHT22;4194;43.408;24.626;2023-05-14T13:13:57;23.60;65.90
8313;DHT22;4194;43.408;24.626;2023-05-14T13:16:27;23.60;65.90
8313;DHT22;4194;43.408;24.626;2023-05-14T13:18:53;23.40;67.00
8313;DHT22;4194;43.408;24.626;2023-05-14T13:21:19;23.40;66.50
8313;DHT22;4194;43.408;24.626;2023-05-14T13:23:45;23.20;65.40
8313;DHT22;4194;43.408;24.626;2023-05-14T13:26:11;23.60;66.00
8313;DHT22;4194;43.408;24.626;2023-05-14T13:28:36;23.10;66.00
8313;DHT22;4194;43.408;24.626;2023-05-14T13:31:10;23.20;65.70
8313;DHT22;4194;43.408;24.626;2023-05-14T13:33:39;22.80;66.10
8313;DHT22;4194;43.408;24.626;2023-05-14T13:36:06;24.00;66.50
8313;DHT22;4194;43.408;24.626;2023-05-14T13:38:33;22.60;63.80
8313;DHT22;4194;43.408;24.626;2023-05-14T13:40:58;23.40;65.30
8313;DHT22;4194;43.408;24.626;2023-05-14T13:43:30;22.20;64.60
8313;DHT22;4194;43.408;24.626;2023-05-14T13:48:23;22.50;64.80
8313;DHT22;4194;43.408;24.626;2023-05-14T13:50:49;23.70;66.80
8313;DHT22;4194;43.408;24.626;2023-05-14T13:53:17;22.60;65.90
8313;DHT22;4194;43.408;24.626;2023-05-14T13:55:46;22.70;65.60
8313;DHT22;4194;43.408;24.626;2023-05-14T14:00:44;22.40;67.40
8313;DHT22;4194;43.408;24.626;2023-05-14T14:03:10;22.80;68.50
8313;DHT22;4194;43.408;24.626;2023-05-14T14:05:35;23.40;69.40
8313;DHT22;4194;43.408;24.626;2023-05-14T14:08:01;21.50;68.30
8313;DHT22;4194;43.408;24.626;2023-05-14T14:10:27;22.30;69.10
8313;DHT22;4194;43.408;24.626;2023-05-14T14:12:53;21.00;68.10
8313;DHT22;4194;43.408;24.626;2023-05-14T14:15:19;20.60;68.00
8313;DHT22;4194;43.408;24.626;2023-05-14T14:17:45;21.60;69.70
8313;DHT22;4194;43.408;24.626;2023-05-14T14:20:11;21.60;71.00
8313;DHT22;4194;43.408;24.626;2023-05-14T14:22:37;22.20;70.60
8313;DHT22;4194;43.408;24.626;2023-05-14T14:25:02;21.70;70.60
8313;DHT22;4194;43.408;24.626;2023-05-14T14:27:28;21.00;70.80
8313;DHT22;4194;43.408;24.626;2023-05-14T14:29:59;20.10;71.70
8313;DHT22;4194;43.408;24.626;2023-05-14T14:32:25;20.50;72.10
8313;DHT22;4194;43.408;24.626;2023-05-14T14:34:50;21.80;73.80
8313;DHT22;4194;43.408;24.626;2023-05-14T14:37:16;21.70;74.70
8313;DHT22;4194;43.408;24.626;2023-05-14T14:39:42;22.00;75.80
8313;DHT22;4194;43.408;24.626;2023-05-14T14:42:07;20.40;74.00
8313;DHT22;4194;43.408;24.626;2023-05-14T14:44:33;20.50;75.30
8313;DHT22;4194;43.408;24.626;2023-05-14T14:46:58;20.40;74.90
8313;DHT22;4194;43.408;24.626;2023-05-14T14:49:24;20.50;74.90
8313;DHT22;4194;43.408;24.626;2023-05-14T14:51:50;20.70;75.40
8313;DHT22;4194;43.408;24.626;2023-05-14T14:54:16;19.40;74.40
8313;DHT22;4194;43.408;24.626;2023-05-14T14:56:41;20.40;76.40
8313;DHT22;4194;43.408;24.626;2023-05-14T14:59:08;21.10;77.30
8313;DHT22;4194;43.408;24.626;2023-05-14T15:01:34;20.80;77.60
8313;DHT22;4194;43.408;24.626;2023-05-14T15:03:59;19.70;77.90
8313;DHT22;4194;43.408;24.626;2023-05-14T15:06:25;19.40;78.30
8313;DHT22;4194;43.408;24.626;2023-05-14T15:08:51;18.80;77.40
8313;DHT22;4194;43.408;24.626;2023-05-14T15:13:43;20.10;81.10
8313;DHT22;4194;43.408;24.626;2023-05-14T15:16:08;20.10;82.10
8313;DHT22;4194;43.408;24.626;2023-05-14T15:18:34;20.50;82.30
8313;DHT22;4194;43.408;24.626;2023-05-14T15:21:00;20.20;82.60
8313;DHT22;4194;43.408;24.626;2023-05-14T15:23:25;20.10;83.00
8313;DHT22;4194;43.408;24.626;2023-05-14T15:25:51;19.60;83.00
8313;DHT22;4194;43.408;24.626;2023-05-14T15:28:17;20.00;85.00
8313;DHT22;4194;43.408;24.626;2023-05-14T15:30:42;20.40;84.60
8313;DHT22;4194;43.408;24.626;2023-05-14T15:33:08;20.50;83.70
8313;DHT22;4194;43.408;24.626;2023-05-14T15:35:34;19.70;84.10
8313;DHT22;4194;43.408;24.626;2023-05-14T15:38:01;19.70;82.50
8313;DHT22;4194;43.408;24.626;2023-05-14T15:40:26;20.20;85.00
8313;DHT22;4194;43.408;24.626;2023-05-14T15:42:52;19.60;82.20
8313;DHT22;4194;43.408;24.626;2023-05-14T15:45:18;18.90;81.00
8313;DHT22;4194;43.408;24.626;2023-05-14T15:47:43;18.80;82.50
8313;DHT22;4194;43.408;24.626;2023-05-14T15:50:09;20.40;83.50
8313;DHT22;4194;43.408;24.626;2023-05-14T15:52:36;20.00;83.00
8313;DHT22;4194;43.408;24.626;2023-05-14T15:55:05;20.30;84.00
8313;DHT22;4194;43.408;24.626;2023-05-14T15:57:30;18.60;83.80
8313;DHT22;4194;43.408;24.626;2023-05-14T15:59:56;19.40;85.00
8313;DHT22;4194;43.408;24.626;2023-05-14T16:02:22;18.20;81.70
8313;DHT22;4194;43.408;24.626;2023-05-14T16:04:48;19.00;83.80
8313;DHT22;4194;43.408;24.626;2023-05-14T16:07:14;18.90;84.10
8313;DHT22;4194;43.408;24.626;2023-05-14T16:09:40;19.10;86.20
8313;DHT22;4194;43.408;24.626;2023-05-14T16:12:07;19.10;83.30
8313;DHT22;4194;43.408;24.626;2023-05-14T16:14:33;19.10;84.30
8313;DHT22;4194;43.408;24.626;2023-05-14T16:16:59;19.20;84.80
8313;DHT22;4194;43.408;24.626;2023-05-14T16:19:26;19.10;85.50
8313;DHT22;4194;43.408;24.626;2023-05-14T16:21:52;19.10;86.20
8313;DHT22;4194;43.408;24.626;2023-05-14T16:24:17;18.90;86.50
8313;DHT22;4194;43.408;24.626;2023-05-14T16:26:43;19.10;87.00
8313;DHT22;4194;43.408;24.626;2023-05-14T16:29:09;18.90;87.10
8313;DHT22;4194;43.408;24.626;2023-05-14T16:31:35;18.90;87.80
8313;DHT22;4194;43.408;24.626;2023-05-14T16:34:00;18.70;87.30
8313;DHT22;4194;43.408;24.626;2023-05-14T16:36:26;18.90;89.00
8313;DHT22;4194;43.408;24.626;2023-05-14T16:38:52;18.80;89.50
8313;DHT22;4194;43.408;24.626;2023-05-14T16:41:18;18.80;90.20
8313;DHT22;4194;43.408;24.626;2023-05-14T16:46:12;18.80;90.50
8313;DHT22;4194;43.408;24.626;2023-05-14T16:51:03;18.70;90.90
8313;DHT22;4194;43.408;24.626;2023-05-14T16:55:55;18.60;91.10
8313;DHT22;4194;43.408;24.626;2023-05-14T16:58:21;18.80;90.50
8313;DHT22;4194;43.408;24.626;2023-05-14T17:03:13;18.70;90.20